createdAt,value
2022-08-18T00:01:45.045Z,11.75
2022-08-18T00:04:32.389Z,11.68
2022-08-18T00:07:00.151Z,11.68
2022-08-18T00:09:32.016Z,11.93
2022-08-18T00:12:03.041Z,12.48
2022-08-18T00:14:29.874Z,11.82
2022-08-18T00:16:57.467Z,12.40
2022-08-18T00:19:46.286Z,10.80
2022-08-18T00:22:15.821Z,10.25
2022-08-18T00:24:48.832Z,12.00
2022-08-18T00:27:23.707Z,10.82
2022-08-18T00:29:56.755Z,13.35
2022-08-18T00:32:29.668Z,11.95
2022-08-18T00:34:56.823Z,12.63
2022-08-18T00:37:24.200Z,12.05
2022-08-18T00:39:53.051Z,12.52
2022-08-18T00:42:30.337Z,12.80
2022-08-18T00:45:01.063Z,11.80
2022-08-18T00:47:33.181Z,12.80
2022-08-18T00:50:18.309Z,12.98
2022-08-18T00:53:00.815Z,12.98
2022-08-18T00:55:29.272Z,13.50
2022-08-18T00:58:03.564Z,13.27
2022-08-18T01:00:30.433Z,13.20
2022-08-18T01:03:00.987Z,12.68
2022-08-18T01:05:34.291Z,13.73
2022-08-18T01:08:01.788Z,12.77
2022-08-18T01:10:28.467Z,15.40
2022-08-18T01:12:58.248Z,12.40
2022-08-18T01:15:28.746Z,12.40
2022-08-18T01:18:22.526Z,12.93
2022-08-18T01:21:34.266Z,12.80
2022-08-18T01:24:04.199Z,13.07
2022-08-18T01:26:31.977Z,13.50
2022-08-18T01:29:05.995Z,14.35
2022-08-18T01:31:38.165Z,14.68
2022-08-18T01:34:07.788Z,13.98
2022-08-18T01:36:37.506Z,14.48
2022-08-18T01:39:10.660Z,13.90
2022-08-18T01:41:38.317Z,12.02
2022-08-18T01:44:05.621Z,10.15
2022-08-18T01:46:34.664Z,13.07
2022-08-18T01:49:03.519Z,12.95
2022-08-18T01:51:38.034Z,13.67
2022-08-18T01:54:08.816Z,11.32
2022-08-18T01:56:36.680Z,11.55
2022-08-18T01:59:04.769Z,14.63
2022-08-18T02:01:36.438Z,10.57
2022-08-18T02:04:30.983Z,13.82
2022-08-18T02:06:53.131Z,14.02
2022-08-18T02:09:23.877Z,13.52
2022-08-18T02:11:53.035Z,13.40
2022-08-18T02:14:24.999Z,11.35
2022-08-18T02:17:01.388Z,11.43
2022-08-18T02:19:38.481Z,11.60
2022-08-18T02:22:07.376Z,12.70
2022-08-18T02:24:34.314Z,11.88
2022-08-18T02:27:01.054Z,13.70
2022-08-18T02:29:27.882Z,11.23
2022-08-18T02:31:54.586Z,14.43
2022-08-18T02:34:21.313Z,10.80
2022-08-18T02:36:48.083Z,10.82
2022-08-18T02:39:15.195Z,11.80
2022-08-18T02:41:42.063Z,10.77
2022-08-18T02:44:09.507Z,10.95
2022-08-18T02:46:37.377Z,10.35
2022-08-18T02:49:06.149Z,10.30
2022-08-18T02:51:32.955Z,11.75
2022-08-18T02:53:59.970Z,10.47
2022-08-18T02:56:40.437Z,10.38
2022-08-18T02:59:11.815Z,11.15
2022-08-18T03:01:41.281Z,9.95
2022-08-18T03:04:09.962Z,12.10
2022-08-18T03:06:39.075Z,12.07
2022-08-18T03:09:07.883Z,11.77
2022-08-18T03:11:35.243Z,11.07
2022-08-18T03:14:02.012Z,10.82
2022-08-18T03:16:32.753Z,11.75
2022-08-18T03:19:01.146Z,10.03
2022-08-18T03:21:30.367Z,9.75
2022-08-18T03:24:00.772Z,9.98
2022-08-18T03:26:29.842Z,11.40
2022-08-18T03:28:58.205Z,10.60
2022-08-18T03:31:28.112Z,9.40
2022-08-18T03:33:59.166Z,9.75
2022-08-18T03:36:31.846Z,10.02
2022-08-18T03:39:01.480Z,11.45
2022-08-18T03:41:57.209Z,11.07
2022-08-18T03:44:16.112Z,12.10
2022-08-18T03:46:44.690Z,11.00
2022-08-18T03:49:11.641Z,11.68
2022-08-18T03:51:38.418Z,9.23
2022-08-18T03:54:06.045Z,12.45
2022-08-18T03:56:36.216Z,12.07
2022-08-18T03:59:10.324Z,9.82
2022-08-18T04:01:39.987Z,9.45
2022-08-18T04:04:09.565Z,10.73
2022-08-18T04:06:49.982Z,10.18
2022-08-18T04:09:17.426Z,10.30
2022-08-18T04:11:45.146Z,9.43
2022-08-18T04:14:20.294Z,12.32
2022-08-18T04:16:48.896Z,12.32
2022-08-18T04:19:23.126Z,9.73
2022-08-18T04:21:54.583Z,10.23
2022-08-18T04:24:21.392Z,9.32
2022-08-18T04:26:48.770Z,8.75
2022-08-18T04:29:18.995Z,8.93
2022-08-18T04:31:45.746Z,11.07
2022-08-18T04:34:13.738Z,10.90
2022-08-18T04:36:41.461Z,9.80
2022-08-18T04:39:11.145Z,9.60
2022-08-18T04:41:40.992Z,10.88
2022-08-18T04:44:10.306Z,11.18
2022-08-18T04:46:40.606Z,11.00
2022-08-18T04:49:09.110Z,11.85
2022-08-18T04:52:26.986Z,11.52
2022-08-18T04:54:24.758Z,9.32
2022-08-18T04:56:51.437Z,11.65
2022-08-18T04:59:18.341Z,11.17
2022-08-18T05:01:47.550Z,10.70
2022-08-18T05:04:17.340Z,11.93
2022-08-18T05:06:45.475Z,11.38
2022-08-18T05:09:16.797Z,11.57
2022-08-18T05:11:50.557Z,10.87
2022-08-18T05:14:18.219Z,11.38
2022-08-18T05:16:48.679Z,11.60
2022-08-18T05:19:22.242Z,13.00
2022-08-18T05:21:59.564Z,11.15
2022-08-18T05:27:23.960Z,11.60
2022-08-18T05:29:51.835Z,10.43
2022-08-18T05:32:37.264Z,9.40
2022-08-18T05:35:16.242Z,9.32
2022-08-18T05:37:52.477Z,9.20
2022-08-18T05:40:23.003Z,10.63
2022-08-18T05:42:49.776Z,8.80
2022-08-18T05:45:18.443Z,8.25
2022-08-18T05:47:45.379Z,9.18
2022-08-18T05:50:17.368Z,8.27
2022-08-18T05:52:53.726Z,8.15
2022-08-18T05:55:48.135Z,8.82
2022-08-18T05:58:33.463Z,8.18
2022-08-18T06:01:30.143Z,9.77
2022-08-18T06:04:07.948Z,8.68
2022-08-18T06:06:36.939Z,9.40
2022-08-18T06:09:19.662Z,8.57
2022-08-18T06:11:47.169Z,8.43
2022-08-18T06:14:14.078Z,6.93
2022-08-18T06:16:53.402Z,7.63
2022-08-18T06:19:31.291Z,7.30
2022-08-18T06:22:53.370Z,8.20
2022-08-18T06:25:50.575Z,7.75
2022-08-18T06:28:17.321Z,8.73
2022-08-18T06:30:59.642Z,7.35
2022-08-18T06:33:40.467Z,8.60
2022-08-18T06:36:35.882Z,7.18
2022-08-18T06:39:44.332Z,7.88
2022-08-18T06:42:11.459Z,6.63
2022-08-18T06:44:46.649Z,8.37
2022-08-18T06:47:51.207Z,7.25
2022-08-18T06:50:25.998Z,8.80
2022-08-18T06:53:00.942Z,6.78
2022-08-18T06:55:47.311Z,7.45
2022-08-18T06:58:13.938Z,8.27
2022-08-18T07:00:56.102Z,7.38
2022-08-18T07:03:25.160Z,9.25
2022-08-18T07:06:02.779Z,6.68
2022-08-18T07:08:38.735Z,5.68
2022-08-18T07:11:17.388Z,6.93
2022-08-18T07:13:46.152Z,6.53
2022-08-18T07:16:54.922Z,5.88
2022-08-18T07:19:20.747Z,5.47
2022-08-18T07:22:06.160Z,5.95
2022-08-18T07:24:38.985Z,6.20
2022-08-18T07:27:12.672Z,6.07
2022-08-18T07:30:07.346Z,6.15
2022-08-18T07:32:47.550Z,7.22
2022-08-18T07:35:27.935Z,5.80
2022-08-18T07:38:00.585Z,5.28
2022-08-18T07:40:40.149Z,6.90
2022-08-18T07:43:16.980Z,6.70
2022-08-18T07:45:46.568Z,6.28
2022-08-18T07:48:38.215Z,6.93
2022-08-18T07:51:37.125Z,6.60
2022-08-18T07:54:37.717Z,6.70
2022-08-18T07:57:19.693Z,6.80
2022-08-18T08:00:55.341Z,7.90
2022-08-18T08:03:50.166Z,5.93
2022-08-18T08:06:41.212Z,6.32
2022-08-18T08:09:34.368Z,5.70
2022-08-18T08:12:13.559Z,5.68
2022-08-18T08:14:58.687Z,6.93
2022-08-18T08:17:32.378Z,5.38
2022-08-18T08:20:02.464Z,5.53
2022-08-18T08:22:34.700Z,5.75
2022-08-18T08:28:36.512Z,4.88
2022-08-18T08:31:39.101Z,5.10
2022-08-18T08:34:29.991Z,5.53
2022-08-18T08:37:09.987Z,6.35
2022-08-18T08:39:45.088Z,5.35
2022-08-18T08:42:30.438Z,4.30
2022-08-18T08:45:04.626Z,5.57
2022-08-18T08:47:57.308Z,4.10
2022-08-18T08:50:34.180Z,4.05
2022-08-18T08:53:20.486Z,4.22
2022-08-18T08:55:53.283Z,4.70
2022-08-18T08:58:45.255Z,5.50
2022-08-18T09:01:27.377Z,4.50
2022-08-18T09:04:17.083Z,4.00
2022-08-18T09:06:52.458Z,4.32
2022-08-18T09:09:49.080Z,4.32
2022-08-18T09:12:47.835Z,4.10
2022-08-18T09:15:38.486Z,3.75
2022-08-18T09:18:25.991Z,4.25
2022-08-18T09:20:55.717Z,4.25
2022-08-18T09:23:31.872Z,4.15
2022-08-18T09:26:19.892Z,4.43
2022-08-18T09:28:59.059Z,4.05
2022-08-18T09:31:31.809Z,4.35
2022-08-18T09:34:11.289Z,4.20
2022-08-18T09:36:48.165Z,4.03
2022-08-18T09:39:57.283Z,4.32
2022-08-18T09:42:48.268Z,4.07
2022-08-18T09:45:33.767Z,4.45
2022-08-18T09:48:25.497Z,3.90
2022-08-18T09:50:57.447Z,4.10
2022-08-18T09:53:56.688Z,3.85
2022-08-18T09:56:54.261Z,4.40
2022-08-18T09:59:34.955Z,3.83
2022-08-18T10:02:06.398Z,3.35
2022-08-18T10:04:53.687Z,3.90
2022-08-18T10:07:43.806Z,3.80
2022-08-18T10:11:01.756Z,4.00
2022-08-18T10:13:45.159Z,3.75
2022-08-18T10:16:21.138Z,3.20
2022-08-18T10:19:00.453Z,3.40
2022-08-18T10:21:49.605Z,4.25
2022-08-18T10:27:32.409Z,3.60
2022-08-18T10:30:00.674Z,3.38
2022-08-18T10:32:53.992Z,3.78
2022-08-18T10:35:36.703Z,3.55
2022-08-18T10:38:17.196Z,4.70
2022-08-18T10:40:54.390Z,4.72
2022-08-18T10:43:55.357Z,4.18
2022-08-18T10:46:36.986Z,3.70
2022-08-18T10:49:14.777Z,4.07
2022-08-18T10:52:12.529Z,3.67
2022-08-18T10:54:54.550Z,3.80
2022-08-18T10:57:40.445Z,4.00
2022-08-18T11:00:17.325Z,4.00
2022-08-18T11:03:21.209Z,3.83
2022-08-18T11:05:49.071Z,3.63
2022-08-18T11:08:20.474Z,3.13
2022-08-18T11:14:02.309Z,3.05
2022-08-18T11:16:54.131Z,3.40
2022-08-18T11:19:25.298Z,3.60
2022-08-18T11:21:53.256Z,3.55
2022-08-18T11:24:25.852Z,3.50
2022-08-18T11:27:15.304Z,3.70
2022-08-18T11:29:44.233Z,3.72
2022-08-18T11:32:33.004Z,3.63
2022-08-18T11:35:18.430Z,3.60
2022-08-18T11:37:59.923Z,3.35
2022-08-18T11:41:09.759Z,3.05
2022-08-18T11:46:28.084Z,3.65
2022-08-18T11:48:59.965Z,3.00
2022-08-18T11:51:32.593Z,3.05
2022-08-18T11:54:13.079Z,3.22
2022-08-18T11:56:40.034Z,3.40
2022-08-18T11:59:52.673Z,3.13
2022-08-18T12:02:21.139Z,3.15
2022-08-18T12:04:52.758Z,3.00
2022-08-18T12:07:29.152Z,3.03
2022-08-18T12:10:20.998Z,3.08
2022-08-18T12:12:54.098Z,2.83
2022-08-18T12:15:25.752Z,3.38
2022-08-18T12:17:56.523Z,3.20
2022-08-18T12:20:24.749Z,3.10
2022-08-18T12:22:55.573Z,2.70
2022-08-18T12:28:10.936Z,2.80
2022-08-18T12:30:37.863Z,3.00
2022-08-18T12:35:55.788Z,2.45
2022-08-18T12:38:23.328Z,2.65
2022-08-18T12:40:50.867Z,2.80
2022-08-18T12:43:18.488Z,2.70
2022-08-18T12:45:47.620Z,2.70
2022-08-18T12:48:14.603Z,2.80
2022-08-18T12:50:54.447Z,2.30
2022-08-18T12:53:30.102Z,2.43
2022-08-18T12:56:20.220Z,2.47
2022-08-18T12:58:48.110Z,2.45
2022-08-18T13:01:17.665Z,2.22
2022-08-18T13:04:05.216Z,2.03
2022-08-18T13:06:35.620Z,2.38
2022-08-18T13:09:02.597Z,2.22
2022-08-18T13:11:42.894Z,2.53
2022-08-18T13:14:09.851Z,2.10
2022-08-18T13:16:53.748Z,2.20
2022-08-18T13:19:21.822Z,2.67
2022-08-18T13:21:49.663Z,2.45
2022-08-18T13:24:22.050Z,3.00
2022-08-18T13:26:49.971Z,3.00
2022-08-18T13:29:19.391Z,3.28
2022-08-18T13:31:55.272Z,2.78
2022-08-18T13:34:30.121Z,2.30
2022-08-18T13:36:57.541Z,2.58
2022-08-18T13:39:25.200Z,2.92
2022-08-18T13:42:25.099Z,2.42
2022-08-18T13:44:53.380Z,2.80
2022-08-18T13:47:20.936Z,2.65
2022-08-18T13:49:52.586Z,3.00
2022-08-18T13:52:41.129Z,2.53
2022-08-18T13:55:16.746Z,2.85
2022-08-18T13:57:49.762Z,2.50
2022-08-18T14:00:27.786Z,2.78
2022-08-18T14:02:58.839Z,2.88
2022-08-18T14:05:36.672Z,3.00
2022-08-18T14:08:12.541Z,2.30
2022-08-18T14:10:52.468Z,2.60
2022-08-18T14:13:24.310Z,2.58
2022-08-18T14:15:53.970Z,2.63
2022-08-18T14:18:28.830Z,2.75
2022-08-18T14:21:16.406Z,2.75
2022-08-18T14:24:06.030Z,2.75
2022-08-18T14:26:50.263Z,2.67
2022-08-18T14:29:45.851Z,3.10
2022-08-18T14:32:06.474Z,3.03
2022-08-18T14:34:33.163Z,3.17
2022-08-18T14:37:00.036Z,3.07
2022-08-18T14:39:27.521Z,2.60
2022-08-18T14:41:55.846Z,2.60
2022-08-18T14:44:25.490Z,3.53
2022-08-18T14:46:58.622Z,3.20
2022-08-18T14:49:28.195Z,3.20
2022-08-18T14:51:56.018Z,3.05
2022-08-18T14:54:24.104Z,3.42
2022-08-18T14:56:55.941Z,3.63
2022-08-18T14:59:24.923Z,3.25
2022-08-18T15:01:52.492Z,3.13
2022-08-18T15:04:20.786Z,3.00
2022-08-18T15:06:56.648Z,3.00
2022-08-18T15:09:27.235Z,3.30
2022-08-18T15:11:56.351Z,2.80
2022-08-18T15:14:32.991Z,2.70
2022-08-18T15:17:13.100Z,2.30
2022-08-18T15:20:00.149Z,2.40
2022-08-18T15:22:45.907Z,3.00
2022-08-18T15:25:33.247Z,2.40
2022-08-18T15:28:00.169Z,2.40
2022-08-18T15:30:27.847Z,2.70
2022-08-18T15:32:54.606Z,2.53
2022-08-18T15:35:21.314Z,2.38
2022-08-18T15:37:51.199Z,2.30
2022-08-18T15:40:30.602Z,2.60
2022-08-18T15:43:01.486Z,2.20
2022-08-18T15:45:35.153Z,2.20
2022-08-18T15:48:02.520Z,2.90
2022-08-18T15:50:30.174Z,2.60
2022-08-18T15:53:03.540Z,2.70
2022-08-18T15:55:36.111Z,2.30
2022-08-18T15:58:04.793Z,2.08
2022-08-18T16:00:42.134Z,1.83
2022-08-18T16:03:13.011Z,2.60
2022-08-18T16:05:47.863Z,2.17
2022-08-18T16:08:18.082Z,2.60
2022-08-18T16:10:44.960Z,2.22
2022-08-18T16:13:14.483Z,2.15
2022-08-18T16:15:46.629Z,2.42
2022-08-18T16:18:15.371Z,2.00
2022-08-18T16:20:43.352Z,2.10
2022-08-18T16:23:12.228Z,2.50
2022-08-18T16:25:40.461Z,2.20
2022-08-18T16:28:07.377Z,2.20
2022-08-18T16:30:35.135Z,2.50
2022-08-18T16:33:04.923Z,1.90
2022-08-18T16:35:32.892Z,2.10
2022-08-18T16:38:08.651Z,2.30
2022-08-18T16:40:36.475Z,2.47
2022-08-18T16:43:03.891Z,2.40
2022-08-18T16:45:32.886Z,2.10
2022-08-18T16:48:00.282Z,2.53
2022-08-18T16:50:27.259Z,2.00
2022-08-18T16:52:54.109Z,2.10
2022-08-18T16:55:21.069Z,1.87
2022-08-18T16:58:06.348Z,2.30
2022-08-18T17:00:54.954Z,2.35
2022-08-18T17:03:41.443Z,2.10
2022-08-18T17:06:11.316Z,2.33
2022-08-18T17:08:39.335Z,1.80
2022-08-18T17:11:09.751Z,2.20
2022-08-18T17:13:38.779Z,2.38
2022-08-18T17:16:06.440Z,1.92
2022-08-18T17:18:33.471Z,2.10
2022-08-18T17:21:06.375Z,2.20
2022-08-18T17:23:34.039Z,2.00
2022-08-18T17:26:07.915Z,2.00
2022-08-18T17:28:50.327Z,2.00
2022-08-18T17:31:20.554Z,1.90
2022-08-18T17:33:47.575Z,1.93
2022-08-18T17:36:28.012Z,2.30
2022-08-18T17:39:03.213Z,1.90
2022-08-18T17:41:30.041Z,2.10
2022-08-18T17:44:00.799Z,2.22
2022-08-18T17:46:32.958Z,2.07
2022-08-18T17:49:18.192Z,2.00
2022-08-18T17:51:55.123Z,2.20
2022-08-18T17:54:41.986Z,1.98
2022-08-18T17:57:13.680Z,1.83
2022-08-18T17:59:58.271Z,2.10
2022-08-18T18:02:29.547Z,2.28
2022-08-18T18:05:04.297Z,1.63
2022-08-18T18:07:38.713Z,2.10
2022-08-18T18:10:10.128Z,1.63
2022-08-18T18:12:38.762Z,2.05
2022-08-18T18:15:12.872Z,2.03
2022-08-18T18:17:42.600Z,2.08
2022-08-18T18:20:39.427Z,2.10
2022-08-18T18:23:21.780Z,2.20
2022-08-18T18:25:50.188Z,2.27
2022-08-18T18:28:33.192Z,2.10
2022-08-18T18:31:25.114Z,2.60
2022-08-18T18:33:56.767Z,2.10
2022-08-18T18:36:36.722Z,2.28
2022-08-18T18:39:33.147Z,2.10
2022-08-18T18:42:19.348Z,2.13
2022-08-18T18:44:52.615Z,2.40
2022-08-18T18:47:39.986Z,2.20
2022-08-18T18:50:09.454Z,2.60
2022-08-18T18:53:05.840Z,2.42
2022-08-18T18:55:39.673Z,1.95
2022-08-18T18:58:32.496Z,2.38
2022-08-18T19:01:03.646Z,2.45
2022-08-18T19:03:43.428Z,2.42
2022-08-18T19:06:26.078Z,2.53
2022-08-18T19:09:03.871Z,2.42
2022-08-18T19:11:56.408Z,2.65
2022-08-18T19:14:38.260Z,2.58
2022-08-18T19:17:15.885Z,2.55
2022-08-18T19:19:54.455Z,2.60
2022-08-18T19:22:30.996Z,2.38
2022-08-18T19:25:13.733Z,2.80
2022-08-18T19:27:50.519Z,2.60
2022-08-18T19:30:21.297Z,2.72
2022-08-18T19:32:53.553Z,2.88
2022-08-18T19:35:50.066Z,3.20
2022-08-18T19:38:47.278Z,2.97
2022-08-18T19:41:21.796Z,3.60
2022-08-18T19:44:03.021Z,3.08
2022-08-18T19:46:48.518Z,2.85
2022-08-18T19:49:35.063Z,3.85
2022-08-18T19:52:45.870Z,3.75
2022-08-18T19:55:33.220Z,3.30
2022-08-18T19:58:18.738Z,3.22
2022-08-18T20:01:04.606Z,3.63
2022-08-18T20:03:52.506Z,3.60
2022-08-18T20:06:48.260Z,3.03
2022-08-18T20:09:26.681Z,3.10
2022-08-18T20:12:04.533Z,4.05
2022-08-18T20:14:36.810Z,4.03
2022-08-18T20:17:09.656Z,3.80
2022-08-18T20:19:44.491Z,3.85
2022-08-18T20:22:29.129Z,3.58
2022-08-18T20:25:23.446Z,4.45
2022-08-18T20:27:52.629Z,3.78
2022-08-18T20:30:58.420Z,3.30
2022-08-18T20:33:25.835Z,3.60
2022-08-18T20:36:17.076Z,3.50
2022-08-18T20:38:58.037Z,3.72
2022-08-18T20:41:39.732Z,3.53
2022-08-18T20:44:29.820Z,3.80
2022-08-18T20:47:15.062Z,4.25
2022-08-18T20:50:00.520Z,3.75
2022-08-18T20:52:58.020Z,3.72
2022-08-18T20:55:48.522Z,3.88
2022-08-18T20:58:25.032Z,3.85
2022-08-18T21:00:57.048Z,4.03
2022-08-18T21:03:41.335Z,3.20
2022-08-18T21:06:09.635Z,3.92
2022-08-18T21:08:39.007Z,4.03
2022-08-18T21:11:19.279Z,3.65
2022-08-18T21:13:47.676Z,4.10
2022-08-18T21:16:37.720Z,3.67
2022-08-18T21:19:42.023Z,3.75
2022-08-18T21:22:11.818Z,4.35
2022-08-18T21:24:42.256Z,4.32
2022-08-18T21:27:19.250Z,4.05
2022-08-18T21:29:49.560Z,3.60
2022-08-18T21:32:36.015Z,4.95
2022-08-18T21:35:18.388Z,4.05
2022-08-18T21:38:05.742Z,4.10
2022-08-18T21:40:46.647Z,4.35
2022-08-18T21:43:53.220Z,4.35
2022-08-18T21:46:30.536Z,4.20
2022-08-18T21:49:00.399Z,4.22
2022-08-18T21:51:32.868Z,4.03
2022-08-18T21:54:00.298Z,4.22
2022-08-18T21:56:31.668Z,5.05
2022-08-18T21:59:09.568Z,4.35
2022-08-18T22:01:46.270Z,4.68
2022-08-18T22:04:30.247Z,4.53
2022-08-18T22:07:00.572Z,4.50
2022-08-18T22:09:51.233Z,4.57
2022-08-18T22:12:42.582Z,4.50
2022-08-18T22:15:20.985Z,4.28
2022-08-18T22:17:58.218Z,7.70
2022-08-18T22:20:58.323Z,4.75
2022-08-18T22:24:04.694Z,5.50
2022-08-18T22:26:36.515Z,5.25
2022-08-18T22:29:06.380Z,5.07
2022-08-18T22:31:40.241Z,5.10
2022-08-18T22:34:16.388Z,4.78
2022-08-18T22:36:52.749Z,4.72
2022-08-18T22:39:25.834Z,4.35
2022-08-18T22:41:53.147Z,4.50
2022-08-18T22:44:20.021Z,5.30
2022-08-18T22:46:47.058Z,4.57
2022-08-18T22:49:13.794Z,4.60
2022-08-18T22:51:40.667Z,4.68
2022-08-18T22:54:09.749Z,5.35
2022-08-18T22:56:38.391Z,4.45
2022-08-18T22:59:13.674Z,4.93
2022-08-18T23:01:45.536Z,5.45
2022-08-18T23:04:12.423Z,5.50
2022-08-18T23:06:39.235Z,4.25
2022-08-18T23:09:05.923Z,5.60
2022-08-18T23:11:32.756Z,5.90
2022-08-18T23:14:02.131Z,6.15
2022-08-18T23:16:31.268Z,6.85
2022-08-18T23:19:01.878Z,6.38
2022-08-18T23:21:34.578Z,6.78
2022-08-18T23:24:04.656Z,6.60
2022-08-18T23:26:31.384Z,6.20
2022-08-18T23:28:58.090Z,5.70
2022-08-18T23:31:24.819Z,6.40
2022-08-18T23:33:51.564Z,6.07
2022-08-18T23:36:18.282Z,5.90
2022-08-18T23:38:44.999Z,6.50
2022-08-18T23:41:13.361Z,6.32
2022-08-18T23:43:40.585Z,6.45
2022-08-18T23:46:21.738Z,5.90
2022-08-18T23:48:50.926Z,6.35
2022-08-18T23:51:31.365Z,6.57
2022-08-18T23:54:01.643Z,6.07
2022-08-18T23:56:30.864Z,6.38
2022-08-18T23:58:58.825Z,5.95
